sensor_id;sensor_type;location;lat;lon;timestamp;pressure;altitude;pressure_sealevel;temperature;humidity
59513;BME280;45330;51.634;5.562;2023-03-07T00:01:04;99809.88;;;3.24;100.00
59513;BME280;45330;51.634;5.562;2023-03-07T00:03:30;99820.94;;;3.17;100.00
59513;BME280;45330;51.634;5.562;2023-03-07T00:06:04;99826.06;;;3.13;100.00
59513;BME280;45330;51.634;5.562;2023-03-07T00:08:30;99795.03;;;2.89;100.00
59513;BME280;45330;51.634;5.562;2023-03-07T00:11:00;99824.22;;;2.96;100.00
59513;BME280;45330;51.634;5.562;2023-03-07T00:13:28;99824.22;;;2.95;100.00
59513;BME280;45330;51.634;5.562;2023-03-07T00:15:54;99835.38;;;2.98;100.00
59513;BME280;45330;51.634;5.562;2023-03-07T00:18:19;99808.66;;;2.78;100.00
59513;BME280;45330;51.634;5.562;2023-03-07T00:20:45;99810.44;;;2.86;100.00
59513;BME280;45330;51.634;5.562;2023-03-07T00:23:20;99819.84;;;2.86;100.00
59513;BME280;45330;51.634;5.562;2023-03-07T00:25:57;99825.84;;;2.88;100.00
59513;BME280;45330;51.634;5.562;2023-03-07T00:28:23;99799.19;;;2.72;100.00
59513;BME280;45330;51.634;5.562;2023-03-07T00:30:48;99798.34;;;2.73;100.00
59513;BME280;45330;51.634;5.562;2023-03-07T00:33:14;99815.53;;;2.83;100.00
59513;BME280;45330;51.634;5.562;2023-03-07T00:35:39;99808.66;;;2.79;100.00
59513;BME280;45330;51.634;5.562;2023-03-07T00:38:04;99823.22;;;2.80;100.00
59513;BME280;45330;51.634;5.562;2023-03-07T00:40:29;99794.81;;;2.63;100.00
59513;BME280;45330;51.634;5.562;2023-03-07T00:42:55;99822.31;;;2.75;100.00
59513;BME280;45330;51.634;5.562;2023-03-07T00:45:20;99785.28;;;2.53;100.00
59513;BME280;45330;51.634;5.562;2023-03-07T00:47:46;99794.72;;;2.54;100.00
59513;BME280;45330;51.634;5.562;2023-03-07T00:50:11;99814.50;;;2.64;100.00
59513;BME280;45330;51.634;5.562;2023-03-07T00:52:36;99799.03;;;2.56;100.00
59513;BME280;45330;51.634;5.562;2023-03-07T00:55:02;99806.66;;;2.50;100.00
59513;BME280;45330;51.634;5.562;2023-03-07T00:57:27;99796.31;;;2.39;100.00
59513;BME280;45330;51.634;5.562;2023-03-07T00:59:52;99812.66;;;2.49;100.00
59513;BME280;45330;51.634;5.562;2023-03-07T01:02:18;99806.59;;;2.43;100.00
59513;BME280;45330;51.634;5.562;2023-03-07T01:04:43;99813.44;;;2.40;100.00
59513;BME280;45330;51.634;5.562;2023-03-07T01:07:09;99791.06;;;2.30;100.00
59513;BME280;45330;51.634;5.562;2023-03-07T01:09:34;99809.13;;;2.39;100.00
59513;BME280;45330;51.634;5.562;2023-03-07T01:11:59;99810.00;;;2.40;100.00
59513;BME280;45330;51.634;5.562;2023-03-07T01:14:25;99814.28;;;2.41;100.00
59513;BME280;45330;51.634;5.562;2023-03-07T01:16:50;99805.78;;;2.47;100.00
59513;BME280;45330;51.634;5.562;2023-03-07T01:19:15;99792.13;;;2.49;100.00
59513;BME280;45330;51.634;5.562;2023-03-07T01:21:42;99770.63;;;2.38;100.00
59513;BME280;45330;51.634;5.562;2023-03-07T01:24:11;99799.81;;;2.49;100.00
59513;BME280;45330;51.634;5.562;2023-03-07T01:26:37;99767.13;;;2.33;100.00
59513;BME280;45330;51.634;5.562;2023-03-07T01:29:05;99786.13;;;2.50;100.00
59513;BME280;45330;51.634;5.562;2023-03-07T01:31:31;99786.09;;;2.49;100.00
59513;BME280;45330;51.634;5.562;2023-03-07T01:33:57;99786.19;;;2.56;100.00
59513;BME280;45330;51.634;5.562;2023-03-07T01:36:28;99750.13;;;2.44;100.00
59513;BME280;45330;51.634;5.562;2023-03-07T01:38:59;99775.03;;;2.54;100.00
59513;BME280;45330;51.634;5.562;2023-03-07T01:41:27;99768.25;;;2.61;100.00
59513;BME280;45330;51.634;5.562;2023-03-07T01:43:59;99775.16;;;2.68;100.00
59513;BME280;45330;51.634;5.562;2023-03-07T01:46:32;99775.22;;;2.73;100.00
59513;BME280;45330;51.634;5.562;2023-03-07T01:49:07;99772.69;;;2.78;100.00
59513;BME280;45330;51.634;5.562;2023-03-07T01:51:36;99773.53;;;2.80;100.00
59513;BME280;45330;51.634;5.562;2023-03-07T01:54:04;99763.28;;;2.81;100.00
59513;BME280;45330;51.634;5.562;2023-03-07T01:56:30;99747.81;;;2.72;100.00
59513;BME280;45330;51.634;5.562;2023-03-07T01:58:56;99735.78;;;2.69;100.00
59513;BME280;45330;51.634;5.562;2023-03-07T02:01:22;99749.59;;;2.82;100.00
59513;BME280;45330;51.634;5.562;2023-03-07T02:04:09;99745.34;;;2.87;100.00
59513;BME280;45330;51.634;5.562;2023-03-07T02:06:37;99754.81;;;2.91;100.00
59513;BME280;45330;51.634;5.562;2023-03-07T02:09:06;99729.03;;;2.81;100.00
59513;BME280;45330;51.634;5.562;2023-03-07T02:11:37;99721.31;;;2.82;100.00
59513;BME280;45330;51.634;5.562;2023-03-07T02:14:03;99737.69;;;2.95;100.00
59513;BME280;45330;51.634;5.562;2023-03-07T02:16:29;99723.97;;;2.88;100.00
59513;BME280;45330;51.634;5.562;2023-03-07T02:18:55;99737.75;;;3.03;100.00
59513;BME280;45330;51.634;5.562;2023-03-07T02:21:45;99742.06;;;3.04;100.00
59513;BME280;45330;51.634;5.562;2023-03-07T02:24:44;99736.03;;;3.05;100.00
59513;BME280;45330;51.634;5.562;2023-03-07T02:27:12;99697.38;;;2.88;100.00
59513;BME280;45330;51.634;5.562;2023-03-07T02:29:38;99695.69;;;2.90;100.00
59513;BME280;45330;51.634;5.562;2023-03-07T02:32:05;99712.00;;;2.97;100.00
59513;BME280;45330;51.634;5.562;2023-03-07T02:34:30;99719.78;;;3.06;100.00
59513;BME280;45330;51.634;5.562;2023-03-07T02:37:48;99717.22;;;3.07;100.00
59513;BME280;45330;51.634;5.562;2023-03-07T02:39:47;99718.94;;;3.10;100.00
59513;BME280;45330;51.634;5.562;2023-03-07T02:42:25;99713.78;;;3.07;100.00
59513;BME280;45330;51.634;5.562;2023-03-07T02:44:57;99718.94;;;3.10;100.00
59513;BME280;45330;51.634;5.562;2023-03-07T02:47:23;99714.66;;;3.09;100.00
59513;BME280;45330;51.634;5.562;2023-03-07T02:49:48;99714.66;;;3.09;100.00
59513;BME280;45330;51.634;5.562;2023-03-07T02:52:14;99719.78;;;3.07;100.00
59513;BME280;45330;51.634;5.562;2023-03-07T02:54:39;99688.84;;;2.92;100.00
59513;BME280;45330;51.634;5.562;2023-03-07T02:57:04;99686.28;;;2.90;100.00
59513;BME280;45330;51.634;5.562;2023-03-07T02:59:30;99712.91;;;3.06;100.00
59513;BME280;45330;51.634;5.562;2023-03-07T03:01:56;99696.56;;;2.97;100.00
59513;BME280;45330;51.634;5.562;2023-03-07T03:04:22;99711.22;;;3.04;100.00
59513;BME280;45330;51.634;5.562;2023-03-07T03:06:47;99690.56;;;2.90;100.00
59513;BME280;45330;51.634;5.562;2023-03-07T03:09:13;99681.97;;;2.85;100.00
59513;BME280;45330;51.634;5.562;2023-03-07T03:11:38;99709.47;;;3.03;100.00
59513;BME280;45330;51.634;5.562;2023-03-07T03:14:03;99705.19;;;3.00;100.00
59513;BME280;45330;51.634;5.562;2023-03-07T03:16:29;99677.66;;;2.85;100.00
59513;BME280;45330;51.634;5.562;2023-03-07T03:18:54;99699.16;;;2.97;100.00
59513;BME280;45330;51.634;5.562;2023-03-07T03:21:19;99706.03;;;3.01;100.00
59513;BME280;45330;51.634;5.562;2023-03-07T03:23:45;99681.13;;;2.86;100.00
59513;BME280;45330;51.634;5.562;2023-03-07T03:26:10;99711.16;;;2.99;100.00
59513;BME280;45330;51.634;5.562;2023-03-07T03:28:37;99695.72;;;2.93;100.00
59513;BME280;45330;51.634;5.562;2023-03-07T03:31:09;99701.72;;;2.97;100.00
59513;BME280;45330;51.634;5.562;2023-03-07T03:33:35;99676.78;;;2.80;100.00
59513;BME280;45330;51.634;5.562;2023-03-07T03:36:07;99658.75;;;2.71;100.00
59513;BME280;45330;51.634;5.562;2023-03-07T03:38:33;99694.88;;;2.94;100.00
59513;BME280;45330;51.634;5.562;2023-03-07T03:41:02;99664.78;;;2.78;100.00
59513;BME280;45330;51.634;5.562;2023-03-07T03:43:27;99695.75;;;2.98;100.00
59513;BME280;45330;51.634;5.562;2023-03-07T03:45:54;99687.19;;;2.97;100.00
59513;BME280;45330;51.634;5.562;2023-03-07T03:48:20;99642.50;;;2.73;100.00
59513;BME280;45330;51.634;5.562;2023-03-07T03:50:45;99652.78;;;2.77;100.00
59513;BME280;45330;51.634;5.562;2023-03-07T03:53:11;99673.44;;;2.92;100.00
59513;BME280;45330;51.634;5.562;2023-03-07T03:55:36;99643.34;;;2.74;100.00
59513;BME280;45330;51.634;5.562;2023-03-07T03:58:01;99663.97;;;2.83;100.00
59513;BME280;45330;51.634;5.562;2023-03-07T04:00:27;99645.03;;;2.69;100.00
59513;BME280;45330;51.634;5.562;2023-03-07T04:02:52;99641.59;;;2.68;100.00
59513;BME280;45330;51.634;5.562;2023-03-07T04:05:17;99668.22;;;2.81;100.00
59513;BME280;45330;51.634;5.562;2023-03-07T04:07:43;99657.94;;;2.80;100.00
59513;BME280;45330;51.634;5.562;2023-03-07T04:10:09;99629.56;;;2.64;100.00
59513;BME280;45330;51.634;5.562;2023-03-07T04:12:34;99626.16;;;2.62;100.00
59513;BME280;45330;51.634;5.562;2023-03-07T04:15:00;99624.44;;;2.64;100.00
59513;BME280;45330;51.634;5.562;2023-03-07T04:17:25;99645.97;;;2.79;100.00
59513;BME280;45330;51.634;5.562;2023-03-07T04:19:50;99633.06;;;2.74;100.00
59513;BME280;45330;51.634;5.562;2023-03-07T04:22:17;99607.34;;;2.62;100.00
59513;BME280;45330;51.634;5.562;2023-03-07T04:24:42;99633.13;;;2.80;100.00
59513;BME280;45330;51.634;5.562;2023-03-07T04:27:09;99632.25;;;2.81;100.00
59513;BME280;45330;51.634;5.562;2023-03-07T04:29:34;99633.97;;;2.79;100.00
59513;BME280;45330;51.634;5.562;2023-03-07T04:32:00;99624.53;;;2.78;100.00
59513;BME280;45330;51.634;5.562;2023-03-07T04:34:25;99616.81;;;2.77;100.00
59513;BME280;45330;51.634;5.562;2023-03-07T04:36:50;99595.31;;;2.57;100.00
59513;BME280;45330;51.634;5.562;2023-03-07T04:39:16;99627.09;;;2.75;100.00
59513;BME280;45330;51.634;5.562;2023-03-07T04:41:41;99596.19;;;2.60;100.00
59513;BME280;45330;51.634;5.562;2023-03-07T04:44:07;99627.09;;;2.73;100.00
59513;BME280;45330;51.634;5.562;2023-03-07T04:46:32;99619.38;;;2.72;100.00
59513;BME280;45330;51.634;5.562;2023-03-07T04:48:58;99621.94;;;2.73;100.00
59513;BME280;45330;51.634;5.562;2023-03-07T04:51:23;99609.09;;;2.69;100.00
59513;BME280;45330;51.634;5.562;2023-03-07T04:53:48;99611.66;;;2.67;100.00
59513;BME280;45330;51.634;5.562;2023-03-07T04:56:14;99608.22;;;2.71;100.00
59513;BME280;45330;51.634;5.562;2023-03-07T04:58:41;99581.59;;;2.55;100.00
59513;BME280;45330;51.634;5.562;2023-03-07T05:01:07;99588.47;;;2.63;100.00
59513;BME280;45330;51.634;5.562;2023-03-07T05:03:33;99579.03;;;2.54;100.00
59513;BME280;45330;51.634;5.562;2023-03-07T05:06:04;99602.22;;;2.71;100.00
59513;BME280;45330;51.634;5.562;2023-03-07T05:08:31;99599.66;;;2.71;100.00
59513;BME280;45330;51.634;5.562;2023-03-07T05:10:56;99598.81;;;2.72;100.00
59513;BME280;45330;51.634;5.562;2023-03-07T05:13:22;99597.97;;;2.73;100.00
59513;BME280;45330;51.634;5.562;2023-03-07T05:15:51;99603.97;;;2.72;100.00
59513;BME280;45330;51.634;5.562;2023-03-07T05:18:18;99584.16;;;2.55;100.00
59513;BME280;45330;51.634;5.562;2023-03-07T05:20:43;99606.53;;;2.70;100.00
59513;BME280;45330;51.634;5.562;2023-03-07T05:23:08;99597.09;;;2.71;100.00
59513;BME280;45330;51.634;5.562;2023-03-07T05:25:34;99602.25;;;2.74;100.00
59513;BME280;45330;51.634;5.562;2023-03-07T05:27:59;99595.34;;;2.67;100.00
59513;BME280;45330;51.634;5.562;2023-03-07T05:30:25;99575.63;;;2.55;100.00
59513;BME280;45330;51.634;5.562;2023-03-07T05:32:50;99600.50;;;2.71;100.00
59513;BME280;45330;51.634;5.562;2023-03-07T05:35:16;99571.31;;;2.57;100.00
59513;BME280;45330;51.634;5.562;2023-03-07T05:37:41;99592.78;;;2.65;100.00
59513;BME280;45330;51.634;5.562;2023-03-07T05:40:07;99562.72;;;2.50;100.00
59513;BME280;45330;51.634;5.562;2023-03-07T05:42:34;99601.38;;;2.67;100.00
59513;BME280;45330;51.634;5.562;2023-03-07T05:44:59;99583.31;;;2.56;100.00
59513;BME280;45330;51.634;5.562;2023-03-07T05:47:24;99582.50;;;2.61;100.00
59513;BME280;45330;51.634;5.562;2023-03-07T05:49:50;99597.06;;;2.62;100.00
59513;BME280;45330;51.634;5.562;2023-03-07T05:52:15;99603.03;;;2.64;100.00
59513;BME280;45330;51.634;5.562;2023-03-07T05:54:40;99601.31;;;2.63;100.00
59513;BME280;45330;51.634;5.562;2023-03-07T05:57:06;99572.13;;;2.45;100.00
59513;BME280;45330;51.634;5.562;2023-03-07T05:59:31;99590.19;;;2.61;100.00
59513;BME280;45330;51.634;5.562;2023-03-07T06:01:57;99591.06;;;2.63;100.00
59513;BME280;45330;51.634;5.562;2023-03-07T06:04:22;99566.16;;;2.46;100.00
59513;BME280;45330;51.634;5.562;2023-03-07T06:06:47;99585.91;;;2.61;100.00
59513;BME280;45330;51.634;5.562;2023-03-07T06:09:13;99567.81;;;2.43;100.00
59513;BME280;45330;51.634;5.562;2023-03-07T06:11:38;99586.72;;;2.52;100.00
59513;BME280;45330;51.634;5.562;2023-03-07T06:14:03;99578.06;;;2.38;100.00
59513;BME280;45330;51.634;5.562;2023-03-07T06:16:29;99594.41;;;2.48;100.00
59513;BME280;45330;51.634;5.562;2023-03-07T06:18:54;99572.88;;;2.32;100.00
59513;BME280;45330;51.634;5.562;2023-03-07T06:21:20;99592.59;;;2.39;100.00
59513;BME280;45330;51.634;5.562;2023-03-07T06:23:45;99565.97;;;2.21;100.00
59513;BME280;45330;51.634;5.562;2023-03-07T06:26:10;99566.78;;;2.13;100.00
59513;BME280;45330;51.634;5.562;2023-03-07T06:28:40;99595.94;;;2.24;100.00
59513;BME280;45330;51.634;5.562;2023-03-07T06:31:10;99558.13;;;2.00;100.00
59513;BME280;45330;51.634;5.562;2023-03-07T06:33:36;99566.66;;;1.97;100.00
59513;BME280;45330;51.634;5.562;2023-03-07T06:36:06;99591.53;;;2.09;100.00
59513;BME280;45330;51.634;5.562;2023-03-07T06:38:31;99582.88;;;1.95;100.00
59513;BME280;45330;51.634;5.562;2023-03-07T06:40:57;99600.13;;;2.11;100.00
59513;BME280;45330;51.634;5.562;2023-03-07T06:43:22;99610.38;;;2.11;100.00
59513;BME280;45330;51.634;5.562;2023-03-07T06:45:48;99572.56;;;1.88;100.00
59513;BME280;45330;51.634;5.562;2023-03-07T06:48:13;99568.25;;;1.84;100.00
59513;BME280;45330;51.634;5.562;2023-03-07T06:50:38;99575.97;;;1.84;100.00
59513;BME280;45330;51.634;5.562;2023-03-07T06:53:04;99574.22;;;1.80;100.00
59513;BME280;45330;51.634;5.562;2023-03-07T06:55:29;99603.41;;;1.95;100.00
59513;BME280;45330;51.634;5.562;2023-03-07T06:57:54;99569.78;;;1.67;100.00
59513;BME280;45330;51.634;5.562;2023-03-07T07:00:20;99608.47;;;1.88;100.00
59513;BME280;45330;51.634;5.562;2023-03-07T07:02:46;99605.84;;;1.84;100.00
59513;BME280;45330;51.634;5.562;2023-03-07T07:05:12;99608.38;;;1.79;100.00
59513;BME280;45330;51.634;5.562;2023-03-07T07:07:37;99616.06;;;1.79;100.00
59513;BME280;45330;51.634;5.562;2023-03-07T07:10:03;99612.59;;;1.76;100.00
59513;BME280;45330;51.634;5.562;2023-03-07T07:12:29;99576.50;;;1.51;100.00
59513;BME280;45330;51.634;5.562;2023-03-07T07:14:54;99590.22;;;1.58;100.00
59513;BME280;45330;51.634;5.562;2023-03-07T07:17:20;99592.81;;;1.59;100.00
59513;BME280;45330;51.634;5.562;2023-03-07T07:19:46;99628.94;;;1.85;100.00
59513;BME280;45330;51.634;5.562;2023-03-07T07:22:11;99600.66;;;1.75;100.00
59513;BME280;45330;51.634;5.562;2023-03-07T07:24:40;99592.03;;;1.68;100.00
59513;BME280;45330;51.634;5.562;2023-03-07T07:27:05;99615.28;;;1.86;100.00
59513;BME280;45330;51.634;5.562;2023-03-07T07:29:31;99614.44;;;1.86;100.00
59513;BME280;45330;51.634;5.562;2023-03-07T07:31:57;99617.00;;;1.84;100.00
59513;BME280;45330;51.634;5.562;2023-03-07T07:34:22;99622.94;;;1.82;100.00
59513;BME280;45330;51.634;5.562;2023-03-07T07:36:47;99620.25;;;1.71;100.00
59513;BME280;45330;51.634;5.562;2023-03-07T07:39:13;99645.09;;;1.75;100.00
59513;BME280;45330;51.634;5.562;2023-03-07T07:41:39;99596.81;;;1.34;100.00
59513;BME280;45330;51.634;5.562;2023-03-07T07:44:05;99651.69;;;1.51;100.00
59513;BME280;45330;51.634;5.562;2023-03-07T07:46:30;99651.41;;;1.27;100.00
59513;BME280;45330;51.634;5.562;2023-03-07T07:48:55;99625.38;;;0.94;100.00
59513;BME280;45330;51.634;5.562;2023-03-07T07:51:21;99636.31;;;0.82;100.00
59513;BME280;45330;51.634;5.562;2023-03-07T07:53:47;99644.06;;;0.89;100.00
59513;BME280;45330;51.634;5.562;2023-03-07T07:56:12;99681.03;;;1.08;100.00
59513;BME280;45330;51.634;5.562;2023-03-07T07:58:38;99647.50;;;0.91;100.00
59513;BME280;45330;51.634;5.562;2023-03-07T08:03:38;99657.00;;;0.98;100.00
59513;BME280;45330;51.634;5.562;2023-03-07T08:06:03;99669.81;;;0.98;100.00
59513;BME280;45330;51.634;5.562;2023-03-07T08:08:29;99685.13;;;0.93;100.00
59513;BME280;45330;51.634;5.562;2023-03-07T08:10:54;99660.06;;;0.72;100.00
59513;BME280;45330;51.634;5.562;2023-03-07T08:13:19;99667.63;;;0.66;100.00
59513;BME280;45330;51.634;5.562;2023-03-07T08:15:45;99693.59;;;0.89;100.00
59513;BME280;45330;51.634;5.562;2023-03-07T08:18:10;99669.41;;;0.72;100.00
59513;BME280;45330;51.634;5.562;2023-03-07T08:20:36;99664.00;;;0.51;100.00
59513;BME280;45330;51.634;5.562;2023-03-07T08:23:02;99682.84;;;0.55;100.00
59513;BME280;45330;51.634;5.562;2023-03-07T08:25:28;99700.84;;;0.61;100.00
59513;BME280;45330;51.634;5.562;2023-03-07T08:27:53;99683.38;;;0.34;100.00
59513;BME280;45330;51.634;5.562;2023-03-07T08:30:27;99668.59;;;0.17;100.00
59513;BME280;45330;51.634;5.562;2023-03-07T08:32:54;99706.41;;;0.36;100.00
59513;BME280;45330;51.634;5.562;2023-03-07T08:35:20;99696.72;;;0.17;100.00
59513;BME280;45330;51.634;5.562;2023-03-07T08:37:46;99694.72;;;0.01;100.00
59513;BME280;45330;51.634;5.562;2023-03-07T08:40:15;99706.72;;;0.05;100.00
59513;BME280;45330;51.634;5.562;2023-03-07T08:42:41;99715.44;;;0.15;100.00
59513;BME280;45330;51.634;5.562;2023-03-07T08:45:08;99675.31;;;0.12;100.00
59513;BME280;45330;51.634;5.562;2023-03-07T08:47:33;99703.16;;;0.46;100.00
59513;BME280;45330;51.634;5.562;2023-03-07T08:49:59;99704.19;;;0.57;100.00
59513;BME280;45330;51.634;5.562;2023-03-07T08:52:24;99688.91;;;0.62;100.00
59513;BME280;45330;51.634;5.562;2023-03-07T08:54:49;99692.59;;;0.79;100.00
59513;BME280;45330;51.634;5.562;2023-03-07T08:57:15;99688.47;;;0.89;100.00
59513;BME280;45330;51.634;5.562;2023-03-07T08:59:40;99663.50;;;0.76;100.00
59513;BME280;45330;51.634;5.562;2023-03-07T09:02:06;99687.78;;;1.02;100.00
59513;BME280;45330;51.634;5.562;2023-03-07T09:04:31;99661.91;;;0.82;100.00
59513;BME280;45330;51.634;5.562;2023-03-07T09:06:56;99693.78;;;1.03;100.00
59513;BME280;45330;51.634;5.562;2023-03-07T09:09:22;99696.34;;;1.03;100.00
59513;BME280;45330;51.634;5.562;2023-03-07T09:11:48;99702.44;;;1.10;100.00
59513;BME280;45330;51.634;5.562;2023-03-07T09:14:14;99670.59;;;0.94;100.00
59513;BME280;45330;51.634;5.562;2023-03-07T09:16:39;99704.16;;;1.12;100.00
59513;BME280;45330;51.634;5.562;2023-03-07T09:19:05;99675.06;;;1.06;100.00
59513;BME280;45330;51.634;5.562;2023-03-07T09:21:30;99693.28;;;1.29;100.00
59513;BME280;45330;51.634;5.562;2023-03-07T09:23:56;99693.41;;;1.38;100.00
59513;BME280;45330;51.634;5.562;2023-03-07T09:26:21;99699.59;;;1.57;100.00
59513;BME280;45330;51.634;5.562;2023-03-07T09:28:47;99711.66;;;1.66;100.00
59513;BME280;45330;51.634;5.562;2023-03-07T09:31:13;99710.84;;;1.67;100.00
59513;BME280;45330;51.634;5.562;2023-03-07T09:33:39;99709.09;;;1.66;100.00
59513;BME280;45330;51.634;5.562;2023-03-07T09:36:06;99690.28;;;1.64;100.00
59513;BME280;45330;51.634;5.562;2023-03-07T09:38:32;99685.19;;;1.67;100.00
59513;BME280;45330;51.634;5.562;2023-03-07T09:43:57;99695.66;;;1.87;100.00
59513;BME280;45330;51.634;5.562;2023-03-07T09:49:30;99709.59;;;2.14;100.00
59513;BME280;45330;51.634;5.562;2023-03-07T09:51:59;99690.63;;;1.95;100.00
59513;BME280;45330;51.634;5.562;2023-03-07T09:54:39;99694.94;;;1.97;100.00
59513;BME280;45330;51.634;5.562;2023-03-07T09:57:13;99676.72;;;1.74;100.00
59513;BME280;45330;51.634;5.562;2023-03-07T09:59:42;99682.75;;;1.78;100.00
59513;BME280;45330;51.634;5.562;2023-03-07T10:02:32;99694.09;;;2.00;100.00
59513;BME280;45330;51.634;5.562;2023-03-07T10:07:55;99697.63;;;2.11;100.00
59513;BME280;45330;51.634;5.562;2023-03-07T10:10:24;99703.81;;;2.35;100.00
59513;BME280;45330;51.634;5.562;2023-03-07T10:13:12;99713.38;;;2.51;100.00
59513;BME280;45330;51.634;5.562;2023-03-07T10:15:46;99712.66;;;2.66;100.00
59513;BME280;45330;51.634;5.562;2023-03-07T10:26:11;99682.78;;;2.82;100.00
59513;BME280;45330;51.634;5.562;2023-03-07T10:28:39;99681.06;;;2.81;100.00
59513;BME280;45330;51.634;5.562;2023-03-07T10:31:35;99712.06;;;3.03;100.00
59513;BME280;45330;51.634;5.562;2023-03-07T10:34:24;99706.91;;;3.03;100.00
59513;BME280;45330;51.634;5.562;2023-03-07T10:36:51;99706.91;;;3.00;100.00
59513;BME280;45330;51.634;5.562;2023-03-07T10:41:44;99715.44;;;2.99;100.00
59513;BME280;45330;51.634;5.562;2023-03-07T10:44:14;99700.88;;;2.99;100.00
59513;BME280;45330;51.634;5.562;2023-03-07T10:46:43;99705.25;;;3.11;100.00
59513;BME280;45330;51.634;5.562;2023-03-07T10:49:15;99712.09;;;3.12;100.00
59513;BME280;45330;51.634;5.562;2023-03-07T10:52:02;99687.19;;;2.99;100.00
59513;BME280;45330;51.634;5.562;2023-03-07T10:54:34;99681.16;;;2.95;100.00
59513;BME280;45330;51.634;5.562;2023-03-07T10:57:11;99694.09;;;3.09;100.00
59513;BME280;45330;51.634;5.562;2023-03-07T10:59:41;99706.19;;;3.29;100.00
59513;BME280;45330;51.634;5.562;2023-03-07T11:04:53;99699.44;;;3.48;100.00
59513;BME280;45330;51.634;5.562;2023-03-07T11:07:32;99695.97;;;3.44;100.00
59513;BME280;45330;51.634;5.562;2023-03-07T11:09:59;99705.50;;;3.60;100.00
59513;BME280;45330;51.634;5.562;2023-03-07T11:12:27;99710.63;;;3.65;100.00
59513;BME280;45330;51.634;5.562;2023-03-07T11:15:40;99704.66;;;3.75;100.00
59513;BME280;45330;51.634;5.562;2023-03-07T11:17:43;99702.09;;;3.72;100.00
59513;BME280;45330;51.634;5.562;2023-03-07T11:20:29;99683.19;;;3.56;100.00
59513;BME280;45330;51.634;5.562;2023-03-07T11:23:19;99688.31;;;3.56;100.00
59513;BME280;45330;51.634;5.562;2023-03-07T11:25:48;99696.03;;;3.61;100.00
59513;BME280;45330;51.634;5.562;2023-03-07T11:28:39;99710.69;;;3.76;100.00
59513;BME280;45330;51.634;5.562;2023-03-07T11:31:09;99704.66;;;3.66;100.00
59513;BME280;45330;51.634;5.562;2023-03-07T11:36:34;99685.69;;;3.49;100.00
59513;BME280;45330;51.634;5.562;2023-03-07T11:39:23;99699.44;;;3.51;100.00
59513;BME280;45330;51.634;5.562;2023-03-07T11:41:55;99705.44;;;3.50;100.00
59513;BME280;45330;51.634;5.562;2023-03-07T11:44:48;99708.00;;;3.42;100.00
59513;BME280;45330;51.634;5.562;2023-03-07T11:47:37;99705.38;;;3.34;100.00
59513;BME280;45330;51.634;5.562;2023-03-07T11:50:25;99698.53;;;3.41;100.00
59513;BME280;45330;51.634;5.562;2023-03-07T11:55:32;99710.50;;;3.34;100.00
59513;BME280;45330;51.634;5.562;2023-03-07T12:11:56;99692.69;;;3.71;100.00
59513;BME280;45330;51.634;5.562;2023-03-07T12:14:36;99703.84;;;3.84;100.00
59513;BME280;45330;51.634;5.562;2023-03-07T12:17:22;99674.63;;;3.70;100.00
59513;BME280;45330;51.634;5.562;2023-03-07T12:25:24;99703.88;;;3.97;100.00
59513;BME280;45330;51.634;5.562;2023-03-07T12:33:44;99697.81;;;3.77;100.00
59513;BME280;45330;51.634;5.562;2023-03-07T12:36:11;99682.34;;;3.68;100.00
59513;BME280;45330;51.634;5.562;2023-03-07T12:44:04;99686.66;;;3.69;100.00
59513;BME280;45330;51.634;5.562;2023-03-07T12:46:50;99698.66;;;3.75;100.00
59513;BME280;45330;51.634;5.562;2023-03-07T12:49:46;99677.19;;;3.59;100.00
59513;BME280;45330;51.634;5.562;2023-03-07T12:52:27;99689.22;;;3.66;100.00
59513;BME280;45330;51.634;5.562;2023-03-07T12:55:07;99698.66;;;3.69;100.00
59513;BME280;45330;51.634;5.562;2023-03-07T12:57:40;99691.78;;;3.68;100.00
59513;BME280;45330;51.634;5.562;2023-03-07T13:00:11;99674.59;;;3.54;100.00
59513;BME280;45330;51.634;5.562;2023-03-07T13:02:52;99687.47;;;3.60;100.00
59513;BME280;45330;51.634;5.562;2023-03-07T13:05:20;99679.66;;;3.39;100.00
59513;BME280;45330;51.634;5.562;2023-03-07T13:07:47;99684.78;;;3.30;100.00
59513;BME280;45330;51.634;5.562;2023-03-07T13:10:19;99696.81;;;3.35;100.00
59513;BME280;45330;51.634;5.562;2023-03-07T13:12:45;99692.50;;;3.31;100.00
59513;BME280;45330;51.634;5.562;2023-03-07T13:30:23;99694.16;;;3.21;100.00
59513;BME280;45330;51.634;5.562;2023-03-07T13:37:49;99675.28;;;3.16;100.00
59513;BME280;45330;51.634;5.562;2023-03-07T13:42:59;99672.75;;;3.25;100.00
59513;BME280;45330;51.634;5.562;2023-03-07T13:49:03;99709.59;;;3.24;100.00
59513;BME280;45330;51.634;5.562;2023-03-07T13:51:07;99709.59;;;3.23;100.00
59513;BME280;45330;51.634;5.562;2023-03-07T13:53:44;99688.97;;;3.12;100.00
59513;BME280;45330;51.634;5.562;2023-03-07T14:04:34;99720.50;;;2.86;100.00
59513;BME280;45330;51.634;5.562;2023-03-07T14:07:07;99696.31;;;2.56;100.00
59513;BME280;45330;51.634;5.562;2023-03-07T14:09:46;99727.28;;;2.75;100.00
59513;BME280;45330;51.634;5.562;2023-03-07T14:18:21;99717.00;;;2.73;100.00
59513;BME280;45330;51.634;5.562;2023-03-07T14:21:14;99727.19;;;2.66;100.00
59513;BME280;45330;51.634;5.562;2023-03-07T14:29:20;99734.69;;;2.39;100.00
59513;BME280;45330;51.634;5.562;2023-03-07T14:31:51;99746.56;;;2.28;100.00
59513;BME280;45330;51.634;5.562;2023-03-07T14:39:35;99733.63;;;0.82;100.00
59513;BME280;45330;51.634;5.562;2023-03-07T14:42:19;99767.47;;;0.66;100.00
59513;BME280;45330;51.634;5.562;2023-03-07T14:47:41;99777.13;;;0.32;100.00
59513;BME280;45330;51.634;5.562;2023-03-07T14:50:15;99742.53;;;0.05;100.00
59513;BME280;45330;51.634;5.562;2023-03-07T14:52:43;99748.63;;;0.12;100.00
59513;BME280;45330;51.634;5.562;2023-03-07T14:55:18;99749.31;;;0.02;100.00
59513;BME280;45330;51.634;5.562;2023-03-07T14:57:46;99745.03;;;0.01;100.00
59513;BME280;45330;51.634;5.562;2023-03-07T15:03:06;99777.88;;;0.25;100.00
59513;BME280;45330;51.634;5.562;2023-03-07T15:05:50;99769.56;;;0.37;100.00